NOZ6JS ENGM-LIRP
Flight info
| Callsign | NOZ6JS |
|---|---|
| Flight time | N/A |
| Altitude | 37000 |
| Route | VIPPA DCT ESOSI DCT GOBOT/N0455F390 DCT NEBUN DCT EMBOX DCT EXITI DCT BERAS DCT LIKDA DCT BAKOR DCT VESAL DCT LAMPO DCT ROKIB DCT VIC DCT KOPER DCT LUMAV DCT GAVRA DCT KUGIX Y662 AKUTO L12 MAREL |
| Aircraft | B38M/M-SDE1FGHILORVWXY/HB1 |
Departure
| Time | 2026-05-07 05:57 |
|---|---|
| Airport | Oslo-Gardermoen International Airport (ENGM) |
Arrival
| Time | N/A |
|---|---|
| Airport | Pisa International Airport (LIRP) |
| Time | Latitude | Longitude | Altitude | Speed | Heading |
|---|---|---|---|---|---|
| 2026-05-07 05:30 | 60.19473 | 11.10160 | 0 ft | 0 kts | 231° |
| 2026-05-07 05:48 | 60.19480 | 11.10177 | 685 ft | 3 kts | 230° |
| 2026-05-07 05:48 | 60.19493 | 11.10208 | 687 ft | 3 kts | 232° |
| 2026-05-07 05:48 | 60.19505 | 11.10241 | 690 ft | 3 kts | 241° |
| 2026-05-07 05:49 | 60.19514 | 11.10277 | 689 ft | 3 kts | 241° |
| 2026-05-07 05:49 | 60.19524 | 11.10312 | 685 ft | 3 kts | 241° |
| 2026-05-07 05:49 | 60.19534 | 11.10348 | 685 ft | 3 kts | 241° |
| 2026-05-07 05:49 | 60.19542 | 11.10378 | 685 ft | 1 kts | 241° |
| 2026-05-07 05:50 | 60.19543 | 11.10381 | 685 ft | 2 kts | 241° |
| 2026-05-07 05:51 | 60.19541 | 11.10372 | 689 ft | 1 kts | 257° |
| 2026-05-07 05:51 | 60.19549 | 11.10362 | 689 ft | 2 kts | 353° |
| 2026-05-07 05:52 | 60.19585 | 11.10396 | 688 ft | 11 kts | 22° |
| 2026-05-07 05:52 | 60.19689 | 11.10460 | 694 ft | 18 kts | 16° |
| 2026-05-07 05:52 | 60.19817 | 11.10534 | 694 ft | 20 kts | 16° |
| 2026-05-07 05:52 | 60.19908 | 11.10454 | 692 ft | 17 kts | 285° |
| 2026-05-07 05:53 | 60.19940 | 11.10210 | 688 ft | 19 kts | 285° |
| 2026-05-07 05:53 | 60.19979 | 11.09943 | 693 ft | 21 kts | 286° |
| 2026-05-07 05:53 | 60.20021 | 11.09654 | 694 ft | 22 kts | 286° |
| 2026-05-07 05:53 | 60.20065 | 11.09341 | 694 ft | 24 kts | 285° |
| 2026-05-07 05:54 | 60.20111 | 11.09011 | 693 ft | 25 kts | 286° |
| 2026-05-07 05:54 | 60.20130 | 11.08726 | 692 ft | 19 kts | 234° |
| 2026-05-07 05:54 | 60.20001 | 11.08632 | 693 ft | 21 kts | 195° |
| 2026-05-07 05:54 | 60.19855 | 11.08550 | 691 ft | 23 kts | 196° |
| 2026-05-07 05:55 | 60.19752 | 11.08491 | 693 ft | 24 kts | 196° |
| 2026-05-07 05:55 | 60.19589 | 11.08397 | 693 ft | 24 kts | 196° |
| 2026-05-07 05:55 | 60.19420 | 11.08298 | 693 ft | 26 kts | 196° |
| 2026-05-07 05:55 | 60.19267 | 11.08192 | 687 ft | 18 kts | 224° |
| 2026-05-07 05:56 | 60.19270 | 11.07945 | 685 ft | 17 kts | 283° |
| 2026-05-07 05:56 | 60.19314 | 11.07842 | 686 ft | 9 kts | 14° |
| 2026-05-07 05:56 | 60.19413 | 11.07901 | 685 ft | 36 kts | 15° |
| 2026-05-07 05:56 | 60.19909 | 11.08184 | 682 ft | 110 kts | 16° |
| 2026-05-07 05:57 | 60.20842 | 11.08717 | 708 ft | 165 kts | 15° |
| 2026-05-07 05:57 | 60.21972 | 11.09383 | 1404 ft | 169 kts | 15° |
| 2026-05-07 05:57 | 60.23105 | 11.10015 | 2397 ft | 165 kts | 14° |
| 2026-05-07 05:57 | 60.24247 | 11.10646 | 2883 ft | 183 kts | 14° |
| 2026-05-07 05:58 | 60.25576 | 11.11251 | 3188 ft | 209 kts | 1° |
| 2026-05-07 05:58 | 60.27094 | 11.10921 | 3617 ft | 229 kts | 348° |
| 2026-05-07 05:58 | 60.28566 | 11.09458 | 4043 ft | 248 kts | 318° |
| 2026-05-07 05:58 | 60.29551 | 11.06504 | 4653 ft | 259 kts | 287° |
| 2026-05-07 05:59 | 60.29830 | 11.02960 | 5587 ft | 259 kts | 275° |
| 2026-05-07 05:59 | 60.29961 | 10.99277 | 6319 ft | 265 kts | 272° |
| 2026-05-07 05:59 | 60.29620 | 10.95650 | 7156 ft | 266 kts | 245° |
| 2026-05-07 05:59 | 60.28478 | 10.92699 | 7903 ft | 272 kts | 219° |
| 2026-05-07 06:00 | 60.26813 | 10.90845 | 8696 ft | 276 kts | 205° |
| 2026-05-07 06:00 | 60.24960 | 10.89708 | 9454 ft | 280 kts | 195° |
| 2026-05-07 06:00 | 60.23058 | 10.88749 | 10186 ft | 284 kts | 197° |
| 2026-05-07 06:00 | 60.21117 | 10.87747 | 10533 ft | 300 kts | 197° |
| 2026-05-07 06:01 | 60.19008 | 10.86643 | 10827 ft | 317 kts | 197° |
| 2026-05-07 06:01 | 60.16844 | 10.85502 | 11334 ft | 324 kts | 198° |
| 2026-05-07 06:01 | 60.14691 | 10.84364 | 12082 ft | 325 kts | 199° |
| 2026-05-07 06:01 | 60.12464 | 10.83185 | 12828 ft | 329 kts | 199° |
| 2026-05-07 06:02 | 60.10237 | 10.82008 | 13615 ft | 332 kts | 200° |
| 2026-05-07 06:02 | 60.08024 | 10.80840 | 14314 ft | 335 kts | 200° |
| 2026-05-07 06:02 | 60.05764 | 10.79650 | 15022 ft | 337 kts | 200° |
| 2026-05-07 06:02 | 60.03485 | 10.78451 | 15746 ft | 340 kts | 200° |
| 2026-05-07 06:03 | 60.01184 | 10.77241 | 16480 ft | 343 kts | 200° |
| 2026-05-07 06:03 | 59.98861 | 10.76020 | 17200 ft | 346 kts | 200° |
| 2026-05-07 06:03 | 59.96525 | 10.74795 | 17895 ft | 349 kts | 200° |
| 2026-05-07 06:03 | 59.94163 | 10.73559 | 18547 ft | 352 kts | 201° |
| 2026-05-07 06:04 | 59.91783 | 10.72314 | 19125 ft | 355 kts | 201° |
| 2026-05-07 06:04 | 59.89385 | 10.71062 | 19726 ft | 357 kts | 201° |
| 2026-05-07 06:04 | 59.86973 | 10.69805 | 20274 ft | 359 kts | 201° |
| 2026-05-07 06:04 | 59.84546 | 10.68542 | 20838 ft | 362 kts | 201° |
| 2026-05-07 06:05 | 59.82099 | 10.67271 | 21390 ft | 364 kts | 201° |
| 2026-05-07 06:05 | 59.79638 | 10.65993 | 21933 ft | 367 kts | 201° |